Boulder City, Nevada Weather observations

Data are for observation ending at time listed.
 Day   Time    Ave.   Ave.  Ave.  Vector   Max.   Stn.    Total    Solar   Ave.  
  of    of     Air    Rel.  Wind   Wind    Wind   Baro.  Precip.   Rad.    Soil  
Year   Day     Temp.  Hum.  Speed  Dir.    Gust   Pres.                    Temp. 
2016   (PST)    F      %     mph   deg.    mph     mb.     in.     W/m2     F   
------------------------------------------------------------------------------
 270    0:40   73.0    20    4.3   350      8.0   936.9    0.00       0    82.7
 270    0:50   74.8    20    5.4   350     11.2   936.8    0.00       0    82.6
 270    1:00   75.0    20    5.4   349      9.8   936.9    0.00       0    82.5
 270    1:10   74.8    21    5.0     2     10.7   937.0    0.00       0    82.4
 270    1:20   74.9    21    4.4   358      9.9   937.1    0.00       0    82.3
 270    1:30   74.6    21    4.8   353      8.9   937.0    0.00       0    82.1
 270    1:40   74.2    22    4.0   358      8.2   937.0    0.00       0    82.0
 270    1:50   74.2    21    5.0   359      7.9   937.0    0.00       0    82.0
 270    2:00   74.4    20    5.6     2     12.0   936.8    0.00       0    81.9
 270    2:10   74.5    20    6.8     1     15.8   936.7    0.00       0    81.8
 270    2:20   74.2    21    5.2   350     10.2   936.7    0.00       0    81.7
 270    2:30   73.7    22    4.8   352      9.0   936.8    0.00       0    81.6
 270    2:40   74.2    22    6.1   359     13.9   936.7    0.00       0    81.5
 270    2:50   74.3    22    5.5     4     12.4   936.9    0.00       0    81.4
 270    3:00   73.8    22    5.1   355     11.2   936.8    0.00       0    81.4
 270    3:10   73.6    22    5.5   356     11.2   936.8    0.00       0    81.3
 270    3:20   73.4    22    5.1   359     10.8   936.8    0.00       0    81.2
 270    3:30   73.2    22    5.1   356      9.0   936.8    0.00       0    81.2
 270    3:40   73.3    22    5.4   355     11.2   936.8    0.00       0    81.1
 270    3:50   73.1    23    5.0   359      9.8   936.9    0.00       0    81.0
 270    4:00   72.9    23    4.7   357      9.4   937.0    0.00       0    80.9
 270    4:10   72.8    23    4.7   357     11.1   937.1    0.00       0    80.9
 270    4:20   72.6    24    4.3   353      9.4   937.1    0.00       0    80.8
 270    4:30   72.4    24    4.4   357      9.3   937.2    0.00       0    80.7
 270    4:40   72.2    24    4.2   354     10.0   937.3    0.00       0    80.7
 270    4:50   72.0    24    3.8   360      6.9   937.3    0.00       0    80.6
 270    5:00   72.1    24    4.6   358     11.0   937.3    0.00       0    80.5
 270    5:10   72.4    24    5.9     1     10.1   937.4    0.00       0    80.5
 270    5:20   72.2    24    6.0     4     11.8   937.6    0.00       0    80.4
 270    5:30   72.2    24    5.8     2      9.9   937.7    0.00       3    80.3
 270    5:40   72.0    25    4.8   359      9.6   937.7    0.00       7    80.3
 270    5:50   71.7    25    4.3   353      8.5   937.8    0.00      20    80.2
 270    6:00   72.0    25    4.3   358      9.6   937.9    0.00      55    80.2
 270    6:10   72.6    25    3.9   357      8.3   938.0    0.00      93    80.1
 270    6:20   73.5    24    3.9     1      8.3   938.1    0.00     127    80.0
 270    6:30   74.1    24    4.0     2      7.7   938.2    0.00     160    80.0
 270    6:40   74.5    24    4.7     3      9.3   938.2    0.00     195    79.9
 270    6:50   75.0    23    4.3     5      9.4   938.3    0.00     231    79.8
 270    7:00   75.6    23    4.1     5      8.0   938.4    0.00     265    79.8
 270    7:10   76.1    22    4.7    14     10.4   938.5    0.00     300    79.7
 270    7:20   76.4    22    5.1    18      9.3   938.6    0.00     334    79.6
 270    7:30   76.9    21    5.3    13     11.5   938.8    0.00     367    79.6
 270    7:40   77.4    21    4.3    13      8.6   938.9    0.00     399    79.6
 270    7:50   77.8    20    5.3    17     12.1   939.0    0.00     431    79.6
 270    8:00   77.4    20    6.4    17     13.7   939.1    0.00     463    79.6
 270    8:10   77.5    20    6.6    13     11.9   939.2    0.00     494    79.6
 270    8:20   77.8    20    6.6     9     15.0   939.3    0.00     523    79.6
 270    8:30   78.3    20    6.0    11     11.6   939.3    0.00     551    79.7
 270    8:40   78.7    20    5.9    10     11.5   939.4    0.00     576    79.7
 270    8:50   79.3    19    6.3     5     12.1   939.4    0.00     602    79.9
 270    9:00   79.4    19    6.2    10     10.9   939.4    0.00     612    80.0
 270    9:10   79.9    19    6.4    16     12.8   939.4    0.00      75    80.2
 270    9:20   80.3    18    5.9    11     10.1   939.4    0.00     424    80.3
 270    9:30   80.9    18    5.7    19      9.8   939.4    0.00     692    80.5
 270    9:40   81.5    18    5.4    17     13.0   939.4    0.00     707    80.7
 270    9:50   81.5    17    7.1    10     13.4   939.3    0.00     721    80.8
 270   10:00   82.0    17    5.8     6     11.2   939.3    0.00     687    81.0
 270   10:10   82.3    17    5.8    11     11.6   939.2    0.00     695    81.2
 270   10:20   82.6    17    5.8     5     12.9   939.2    0.00     568    81.5
 270   10:30   82.6    17    6.0    15     12.1   939.1    0.00     590    81.8
 270   10:40   82.9    16    5.7    15      9.9   939.0    0.00     592    82.0
 270   10:50   83.2    16    5.8    12     12.1   938.9    0.00     687    82.3
 270   11:00   83.5    16    5.6    11     14.9   938.8    0.00     776    82.6
 270   11:10   84.2    16    5.4    19     13.2   938.8    0.00     804    83.0
 270   11:20   84.2    15    5.9    13     11.7   938.6    0.00     805    83.3
 270   11:30   84.6    15    5.3     3     11.2   938.5    0.00     806    83.6
 270   11:40   85.4    15    4.7    13      9.6   938.3    0.00     805    84.0
 270   11:50   85.9    14    5.0    10      9.4   938.2    0.00     803    84.4
 270   12:00   85.9    14    4.9    12     11.2   938.2    0.00     799    84.8
 270   12:10   86.0    14    4.9    10     11.9   938.0    0.00     792    85.1
 270   12:20   86.5    14    5.5    10     12.0   937.8    0.00     785    85.5
 270   12:30   86.7    14    4.8     0     11.0   937.6    0.00     776    85.8
 270   12:40   87.0    14    5.6    10     11.4   937.5    0.00     764    86.1
 270   12:50   87.3    14    4.5    11     10.0   937.2    0.00     752    86.4
 270   13:00   87.8    14    4.9    10     12.0   937.1    0.00     739    86.7
 270   13:10   87.8    14    5.6     9     10.5   936.9    0.00     724    87.0
 270   13:20   87.9    14    4.7    13      9.4   936.8    0.00     707    87.3
 270   13:30   88.7    13    4.6    16      9.6   936.7    0.00     689    87.7
 270   13:40   88.9    14    4.0    10      9.3   936.5    0.00     667    88.0
 270   13:50   89.2    13    4.0    12      9.5   936.5    0.00     647    88.3
 270   14:00   88.8    13    6.1     8     10.5   936.3    0.00     624    88.6
 270   14:10   89.0    13    4.6     7     10.8   936.2    0.00     600    88.8
 270   14:20   89.5    13    4.8     9      8.6   936.1    0.00     575    89.0
 270   14:30   89.7    13    4.7     7      9.6   936.0    0.00     548    89.3
 270   14:40   89.9    13    3.9    10      8.3   935.9    0.00     520    89.5
 270   14:50   89.7    13    4.0   352      8.9   935.8    0.00     490    89.7
 270   15:00   89.7    13    4.5    12      9.6   935.6    0.00     460    89.9
 270   15:10   90.3    13    3.6    19      8.2   935.4    0.00     428    90.1
 270   15:20   90.1    13    4.2    13      8.4   935.3    0.00     397    90.2
 270   15:30   90.3    13    3.3     8      9.1   935.2    0.00     365    90.3
 270   15:40   90.6    13    3.9     6      8.0   935.0    0.00     332    90.5
 270   15:50   90.1    13    4.1    11     10.6   934.9    0.00     300    90.6
 270   16:00   89.6    13    3.7     2     10.1   934.7    0.00     267    90.6
 270   16:10   90.1    13    3.8    10      6.4   934.6    0.00     234    90.7
 270   16:20   90.0    13    3.0     4      8.2   934.5    0.00     202    90.8
 270   16:30   90.1    13    2.9     8      6.5   934.4    0.00     171    90.8
 270   16:40   90.1    13    2.5     9      5.6   934.3    0.00     141    90.8
 270   16:50   89.5    13    2.4    19      5.5   934.1    0.00     106    90.8
 270   17:00   88.9    13    2.1     7      5.2   934.1    0.00      67    90.7
 270   17:10   87.3    13    1.9   352      3.9   933.9    0.00      19    90.6
 270   17:20   86.2    14    1.5   346      3.1   933.8    0.00      13    90.4
 270   17:30   85.5    14    1.8   348      3.7   933.6    0.00       7    90.3
 270   17:40   85.2    14    1.8   348      3.9   933.4    0.00       3    90.2
 270   17:50   84.8    14    1.5   345      3.3   933.3    0.00       0    90.0
 270   18:00   84.4    14    1.6   346      3.3   933.3    0.00       0    89.9
 270   18:10   84.5    14    1.1   330      3.3   933.2    0.00       0    89.7
 270   18:20   83.9    14    1.1   332      3.4   933.1    0.00       0    89.5
 270   18:30   83.2    14    0.9   329      3.4   933.1    0.00       0    89.3
 270   18:40   83.7    14    1.8   331      3.6   933.1    0.00       0    89.2
 270   18:50   84.5    14    2.6   331      6.2   933.0    0.00       0    89.0
 270   19:00   85.1    14    2.6   347      5.2   933.1    0.00       0    88.8
 270   19:10   84.3    14    2.1   349      3.9   933.2    0.00       0    88.6
 270   19:20   83.5    14    2.0   354      3.6   933.3    0.00       0    88.4
 270   19:30   83.2    14    2.1   348      4.3   933.4    0.00       0    88.3
 270   19:40   83.6    14    2.4   349      5.3   933.4    0.00       0    88.1
 270   19:50   83.8    14    2.6   350      5.0   933.4    0.00       0    87.9
 270   20:00   83.7    14    2.4   346      3.9   933.4    0.00       0    87.8
 270   20:10   83.8    14    2.3   343      6.5   933.4    0.00       0    87.6
 270   20:20   83.3    14    2.1   345      4.5   933.4    0.00       0    87.4
 270   20:30   83.1    14    2.2   358      5.6   933.4    0.00       0    87.3
 270   20:40   82.9    14    1.9   354      3.5   933.4    0.00       0    87.1
 270   20:50   82.1    14    1.8     3      4.3   933.3    0.00       0    86.9
 270   21:00   81.6    14    1.9   354      4.7   933.3    0.00       0    86.8
 270   21:10   82.2    14    2.0   353      4.5   933.2    0.00       0    86.6
 270   21:20   81.8    14    1.5    38      4.2   933.2    0.00       0    86.5
 270   21:30   80.2    16    1.0    37      2.1   933.2    0.00       0    86.3
 270   21:40   79.1    16    0.5    22      1.8   933.2    0.00       0    86.2
 270   21:50   78.4    16    0.3    46      1.5   933.2    0.00       0    86.1
 270   22:00   77.5    17    0.0    46      0.2   933.1    0.00       0    85.9
 270   22:10   77.5    17    0.0     0      0.0   933.0    0.00       0    85.8
 270   22:20   76.9    18    0.0     0      0.0   933.0    0.00       0    85.7
 270   22:30   76.7    18    0.3    12      1.4   933.0    0.00       0    85.5
 270   22:40   76.6    18    0.1    16      0.8   932.9    0.00       0    85.4
 270   22:50   77.4    17    0.0     3      0.3   932.8    0.00       0    85.2
 270   23:00   77.1    18    0.7   205      1.5   932.8    0.00       0    85.1
 270   23:10   76.6    18    0.5   212      2.3   932.8    0.00       0    84.9
 270   23:20   75.5    19    2.5   211      3.4   932.8    0.00       0    84.8
 270   23:30   76.6    19    3.7   228      4.7   932.7    0.00       0    84.7
 270   23:40   76.6    19    4.4   211      6.8   932.7    0.00       0    84.5
 270   23:50   75.7    20    3.5   204      5.9   932.8    0.00       0    84.4
 271    0:00   74.4    21    3.4   214      4.5   932.7    0.00       0    84.2
 271    0:10   74.0    21    4.1   224      5.0   932.6    0.00       0    84.1
 271    0:20   75.0    20    4.4   226      5.8   932.6    0.00       0    84.0
 271    0:30   75.8    19    5.3   167     11.2   932.8    0.00       0    83.8

Return to Boulder City, Nevada graphs page.


Western Regional Climate Center,wrcc@dri.edu